<?xml version="1.0" encoding="UTF-8" standalone="no" ?>
<gpx xmlns="http://www.topografix.com/GPX/1/1" xmlns:xsi="http://www.w3.org/2001/XMLSchema-instance" xsi:schemaLocation="http://www.topografix.com/GPX/1/1 http://www.topografix.com/GPX/1/1/gpx.xsd" version="1.1" creator="VisuGPX - https://www.visugpx.com">
  <metadata>
    <name>LePouliguen_LeCroisic_10-20km</name>
    <desc><![CDATA[gnerando idor:14387918_14388012_14411987_14458844_14458865]]></desc>
  </metadata>
  <trk>
    <name><![CDATA[Batz_LeCroisic_22.4km-8373671]]></name>
    <extensions>
      <line xmlns="http://www.topografix.com/GPX/gpx_style/0/2">
        <color>FF00FF</color>
        <width>4</width>
      </line>
    </extensions>
    <trkseg>
      <trkpt lat="47.2672" lon="-2.45441">
        <ele>6</ele>
        <time>2023-11-04T19:25:26Z</time>
      </trkpt>
      <trkpt lat="47.26681" lon="-2.45484">
        <ele>3</ele>
        <time>2023-11-04T19:26:31Z</time>
      </trkpt>
      <trkpt lat="47.26623" lon="-2.45424">
        <ele>3</ele>
        <time>2023-11-04T19:28:06Z</time>
      </trkpt>
      <trkpt lat="47.26525" lon="-2.45329">
        <ele>3</ele>
        <time>2023-11-04T19:30:42Z</time>
      </trkpt>
      <trkpt lat="47.26493" lon="-2.45309">
        <ele>4</ele>
        <time>2023-11-04T19:31:28Z</time>
      </trkpt>
      <trkpt lat="47.26489" lon="-2.45299">
        <ele>4</ele>
        <time>2023-11-04T19:31:39Z</time>
      </trkpt>
      <trkpt lat="47.26489" lon="-2.4529">
        <ele>5</ele>
        <time>2023-11-04T19:31:47Z</time>
      </trkpt>
      <trkpt lat="47.26484" lon="-2.45286">
        <ele>5</ele>
        <time>2023-11-04T19:31:55Z</time>
      </trkpt>
      <trkpt lat="47.26474" lon="-2.45304">
        <ele>4</ele>
        <time>2023-11-04T19:32:16Z</time>
      </trkpt>
      <trkpt lat="47.26445" lon="-2.45283">
        <ele>4</ele>
        <time>2023-11-04T19:32:59Z</time>
      </trkpt>
      <trkpt lat="47.26426" lon="-2.45276">
        <ele>4</ele>
        <time>2023-11-04T19:33:25Z</time>
      </trkpt>
      <trkpt lat="47.26409" lon="-2.45257">
        <ele>4</ele>
        <time>2023-11-04T19:33:54Z</time>
      </trkpt>
      <trkpt lat="47.2641" lon="-2.4525">
        <ele>5</ele>
        <time>2023-11-04T19:34:00Z</time>
      </trkpt>
      <trkpt lat="47.26485" lon="-2.45186">
        <ele>9</ele>
        <time>2023-11-04T19:35:56Z</time>
      </trkpt>
      <trkpt lat="47.26506" lon="-2.45182">
        <ele>10</ele>
        <time>2023-11-04T19:36:24Z</time>
      </trkpt>
      <trkpt lat="47.26518" lon="-2.4519">
        <ele>10</ele>
        <time>2023-11-04T19:36:41Z</time>
      </trkpt>
      <trkpt lat="47.26539" lon="-2.45135">
        <ele>10</ele>
        <time>2023-11-04T19:37:39Z</time>
      </trkpt>
      <trkpt lat="47.26541" lon="-2.45117">
        <ele>10</ele>
        <time>2023-11-04T19:37:55Z</time>
      </trkpt>
      <trkpt lat="47.26561" lon="-2.45088">
        <ele>10</ele>
        <time>2023-11-04T19:38:33Z</time>
      </trkpt>
      <trkpt lat="47.26576" lon="-2.4508">
        <ele>10</ele>
        <time>2023-11-04T19:38:54Z</time>
      </trkpt>
      <trkpt lat="47.26601" lon="-2.45048">
        <ele>11</ele>
        <time>2023-11-04T19:39:38Z</time>
      </trkpt>
      <trkpt lat="47.26615" lon="-2.45012">
        <ele>11</ele>
        <time>2023-11-04T19:40:16Z</time>
      </trkpt>
      <trkpt lat="47.26685" lon="-2.44922">
        <ele>10</ele>
        <time>2023-11-04T19:42:20Z</time>
      </trkpt>
      <trkpt lat="47.26698" lon="-2.44892">
        <ele>10</ele>
        <time>2023-11-04T19:42:52Z</time>
      </trkpt>
      <trkpt lat="47.26732" lon="-2.44841">
        <ele>11</ele>
        <time>2023-11-04T19:43:57Z</time>
      </trkpt>
      <trkpt lat="47.26741" lon="-2.44817">
        <ele>11</ele>
        <time>2023-11-04T19:44:21Z</time>
      </trkpt>
      <trkpt lat="47.26751" lon="-2.44818">
        <ele>11</ele>
        <time>2023-11-04T19:44:35Z</time>
      </trkpt>
      <trkpt lat="47.26762" lon="-2.44827">
        <ele>11</ele>
        <time>2023-11-04T19:44:52Z</time>
      </trkpt>
      <trkpt lat="47.26802" lon="-2.44815">
        <ele>12</ele>
        <time>2023-11-04T19:45:46Z</time>
      </trkpt>
      <trkpt lat="47.26849" lon="-2.44861">
        <ele>12</ele>
        <time>2023-11-04T19:47:01Z</time>
      </trkpt>
      <trkpt lat="47.26869" lon="-2.44862">
        <ele>12</ele>
        <time>2023-11-04T19:47:28Z</time>
      </trkpt>
      <trkpt lat="47.26879" lon="-2.44887">
        <ele>11</ele>
        <time>2023-11-04T19:47:54Z</time>
      </trkpt>
      <trkpt lat="47.26878" lon="-2.44897">
        <ele>11</ele>
        <time>2023-11-04T19:48:03Z</time>
      </trkpt>
      <trkpt lat="47.26875" lon="-2.44894">
        <ele>11</ele>
        <time>2023-11-04T19:48:08Z</time>
      </trkpt>
      <trkpt lat="47.26875" lon="-2.44906">
        <ele>11</ele>
        <time>2023-11-04T19:48:19Z</time>
      </trkpt>
      <trkpt lat="47.26886" lon="-2.44961">
        <ele>10</ele>
        <time>2023-11-04T19:49:11Z</time>
      </trkpt>
      <trkpt lat="47.26957" lon="-2.45004">
        <ele>9</ele>
        <time>2023-11-04T19:50:54Z</time>
      </trkpt>
      <trkpt lat="47.26982" lon="-2.45004">
        <ele>8</ele>
        <time>2023-11-04T19:51:27Z</time>
      </trkpt>
      <trkpt lat="47.26994" lon="-2.44997">
        <ele>8</ele>
        <time>2023-11-04T19:51:44Z</time>
      </trkpt>
      <trkpt lat="47.27024" lon="-2.45">
        <ele>8</ele>
        <time>2023-11-04T19:52:24Z</time>
      </trkpt>
      <trkpt lat="47.27045" lon="-2.44994">
        <ele>8</ele>
        <time>2023-11-04T19:52:53Z</time>
      </trkpt>
      <trkpt lat="47.27134" lon="-2.45008">
        <ele>7</ele>
        <time>2023-11-04T19:54:52Z</time>
      </trkpt>
      <trkpt lat="47.27214" lon="-2.44995">
        <ele>5</ele>
        <time>2023-11-04T19:56:40Z</time>
      </trkpt>
      <trkpt lat="47.27285" lon="-2.44967">
        <ele>5</ele>
        <time>2023-11-04T19:58:18Z</time>
      </trkpt>
      <trkpt lat="47.27309" lon="-2.44972">
        <ele>4</ele>
        <time>2023-11-04T19:58:50Z</time>
      </trkpt>
      <trkpt lat="47.27355" lon="-2.44953">
        <ele>4</ele>
        <time>2023-11-04T19:59:54Z</time>
      </trkpt>
      <trkpt lat="47.27411" lon="-2.44921">
        <ele>4</ele>
        <time>2023-11-04T20:01:14Z</time>
      </trkpt>
      <trkpt lat="47.27453" lon="-2.44886">
        <ele>3</ele>
        <time>2023-11-04T20:02:18Z</time>
      </trkpt>
      <trkpt lat="47.27466" lon="-2.44865">
        <ele>3</ele>
        <time>2023-11-04T20:02:44Z</time>
      </trkpt>
      <trkpt lat="47.27494" lon="-2.44862">
        <ele>3</ele>
        <time>2023-11-04T20:03:22Z</time>
      </trkpt>
      <trkpt lat="47.27506" lon="-2.44871">
        <ele>3</ele>
        <time>2023-11-04T20:03:40Z</time>
      </trkpt>
      <trkpt lat="47.27528" lon="-2.44966">
        <ele>4</ele>
        <time>2023-11-04T20:05:10Z</time>
      </trkpt>
      <trkpt lat="47.2758" lon="-2.45091">
        <ele>2</ele>
        <time>2023-11-04T20:07:23Z</time>
      </trkpt>
      <trkpt lat="47.27595" lon="-2.45145">
        <ele>2</ele>
        <time>2023-11-04T20:08:16Z</time>
      </trkpt>
      <trkpt lat="47.27623" lon="-2.45454">
        <ele>7</ele>
        <time>2023-11-04T20:12:58Z</time>
      </trkpt>
      <trkpt lat="47.27646" lon="-2.45564">
        <ele>9</ele>
        <time>2023-11-04T20:14:42Z</time>
      </trkpt>
      <trkpt lat="47.27672" lon="-2.45657">
        <ele>8</ele>
        <time>2023-11-04T20:16:14Z</time>
      </trkpt>
      <trkpt lat="47.27663" lon="-2.45681">
        <ele>8</ele>
        <time>2023-11-04T20:16:38Z</time>
      </trkpt>
      <trkpt lat="47.27634" lon="-2.45703">
        <ele>7</ele>
        <time>2023-11-04T20:17:22Z</time>
      </trkpt>
      <trkpt lat="47.27642" lon="-2.45771">
        <ele>6</ele>
        <time>2023-11-04T20:18:24Z</time>
      </trkpt>
      <trkpt lat="47.27638" lon="-2.45816">
        <ele>5</ele>
        <time>2023-11-04T20:19:05Z</time>
      </trkpt>
      <trkpt lat="47.27639" lon="-2.45994">
        <ele>4</ele>
        <time>2023-11-04T20:21:47Z</time>
      </trkpt>
      <trkpt lat="47.2765" lon="-2.46042">
        <ele>4</ele>
        <time>2023-11-04T20:22:33Z</time>
      </trkpt>
      <trkpt lat="47.27663" lon="-2.46134">
        <ele>5</ele>
        <time>2023-11-04T20:23:58Z</time>
      </trkpt>
      <trkpt lat="47.2767" lon="-2.46155">
        <ele>5</ele>
        <time>2023-11-04T20:24:19Z</time>
      </trkpt>
      <trkpt lat="47.2767" lon="-2.46267">
        <ele>7</ele>
        <time>2023-11-04T20:26:00Z</time>
      </trkpt>
      <trkpt lat="47.27659" lon="-2.46294">
        <ele>7</ele>
        <time>2023-11-04T20:26:29Z</time>
      </trkpt>
      <trkpt lat="47.27675" lon="-2.46338">
        <ele>6</ele>
        <time>2023-11-04T20:27:14Z</time>
      </trkpt>
      <trkpt lat="47.27696" lon="-2.46419">
        <ele>6</ele>
        <time>2023-11-04T20:28:32Z</time>
      </trkpt>
      <trkpt lat="47.27716" lon="-2.46451">
        <ele>6</ele>
        <time>2023-11-04T20:29:12Z</time>
      </trkpt>
      <trkpt lat="47.2775" lon="-2.46579">
        <ele>6</ele>
        <time>2023-11-04T20:31:16Z</time>
      </trkpt>
      <trkpt lat="47.27763" lon="-2.46597">
        <ele>6</ele>
        <time>2023-11-04T20:31:40Z</time>
      </trkpt>
      <trkpt lat="47.2777" lon="-2.46662">
        <ele>5</ele>
        <time>2023-11-04T20:32:40Z</time>
      </trkpt>
      <trkpt lat="47.27756" lon="-2.46704">
        <ele>4</ele>
        <time>2023-11-04T20:33:22Z</time>
      </trkpt>
      <trkpt lat="47.27766" lon="-2.46723">
        <ele>4</ele>
        <time>2023-11-04T20:33:44Z</time>
      </trkpt>
      <trkpt lat="47.27785" lon="-2.46847">
        <ele>4</ele>
        <time>2023-11-04T20:35:39Z</time>
      </trkpt>
      <trkpt lat="47.2782" lon="-2.46938">
        <ele>4</ele>
        <time>2023-11-04T20:37:14Z</time>
      </trkpt>
      <trkpt lat="47.27853" lon="-2.46954">
        <ele>4</ele>
        <time>2023-11-04T20:38:00Z</time>
      </trkpt>
      <trkpt lat="47.27887" lon="-2.46982">
        <ele>4</ele>
        <time>2023-11-04T20:38:52Z</time>
      </trkpt>
      <trkpt lat="47.27939" lon="-2.4705">
        <ele>5</ele>
        <time>2023-11-04T20:40:25Z</time>
      </trkpt>
      <trkpt lat="47.27951" lon="-2.47075">
        <ele>5</ele>
        <time>2023-11-04T20:40:52Z</time>
      </trkpt>
      <trkpt lat="47.27967" lon="-2.47141">
        <ele>5</ele>
        <time>2023-11-04T20:41:56Z</time>
      </trkpt>
      <trkpt lat="47.28002" lon="-2.47326">
        <ele>5</ele>
        <time>2023-11-04T20:44:50Z</time>
      </trkpt>
      <trkpt lat="47.27996" lon="-2.4739">
        <ele>6</ele>
        <time>2023-11-04T20:45:48Z</time>
      </trkpt>
      <trkpt lat="47.27999" lon="-2.47402">
        <ele>7</ele>
        <time>2023-11-04T20:46:00Z</time>
      </trkpt>
      <trkpt lat="47.28022" lon="-2.47411">
        <ele>6</ele>
        <time>2023-11-04T20:46:32Z</time>
      </trkpt>
      <trkpt lat="47.28035" lon="-2.47459">
        <ele>5</ele>
        <time>2023-11-04T20:47:18Z</time>
      </trkpt>
      <trkpt lat="47.28041" lon="-2.47555">
        <ele>5</ele>
        <time>2023-11-04T20:48:46Z</time>
      </trkpt>
      <trkpt lat="47.28049" lon="-2.47592">
        <ele>5</ele>
        <time>2023-11-04T20:49:21Z</time>
      </trkpt>
      <trkpt lat="47.28057" lon="-2.47686">
        <ele>4</ele>
        <time>2023-11-04T20:50:47Z</time>
      </trkpt>
      <trkpt lat="47.28064" lon="-2.47727">
        <ele>4</ele>
        <time>2023-11-04T20:51:25Z</time>
      </trkpt>
      <trkpt lat="47.28083" lon="-2.4774">
        <ele>4</ele>
        <time>2023-11-04T20:51:53Z</time>
      </trkpt>
      <trkpt lat="47.28107" lon="-2.47856">
        <ele>6</ele>
        <time>2023-11-04T20:53:43Z</time>
      </trkpt>
      <trkpt lat="47.28139" lon="-2.47857">
        <ele>5</ele>
        <time>2023-11-04T20:54:25Z</time>
      </trkpt>
      <trkpt lat="47.28255" lon="-2.47799">
        <ele>3</ele>
        <time>2023-11-04T20:57:09Z</time>
      </trkpt>
      <trkpt lat="47.28277" lon="-2.47802">
        <ele>2</ele>
        <time>2023-11-04T20:57:38Z</time>
      </trkpt>
      <trkpt lat="47.28305" lon="-2.47811">
        <ele>2</ele>
        <time>2023-11-04T20:58:16Z</time>
      </trkpt>
      <trkpt lat="47.28319" lon="-2.47842">
        <ele>1</ele>
        <time>2023-11-04T20:58:50Z</time>
      </trkpt>
      <trkpt lat="47.28314" lon="-2.47893">
        <ele>2</ele>
        <time>2023-11-04T20:59:37Z</time>
      </trkpt>
      <trkpt lat="47.28216" lon="-2.48171">
        <ele>4</ele>
        <time>2023-11-04T21:04:20Z</time>
      </trkpt>
      <trkpt lat="47.28191" lon="-2.48301">
        <ele>6</ele>
        <time>2023-11-04T21:06:23Z</time>
      </trkpt>
      <trkpt lat="47.28225" lon="-2.48334">
        <ele>5</ele>
        <time>2023-11-04T21:07:17Z</time>
      </trkpt>
      <trkpt lat="47.28272" lon="-2.4837">
        <ele>4</ele>
        <time>2023-11-04T21:08:28Z</time>
      </trkpt>
      <trkpt lat="47.283" lon="-2.4838">
        <ele>3</ele>
        <time>2023-11-04T21:09:06Z</time>
      </trkpt>
      <trkpt lat="47.28361" lon="-2.4836">
        <ele>2</ele>
        <time>2023-11-04T21:10:30Z</time>
      </trkpt>
      <trkpt lat="47.28394" lon="-2.48357">
        <ele>1</ele>
        <time>2023-11-04T21:11:14Z</time>
      </trkpt>
      <trkpt lat="47.28419" lon="-2.48374">
        <ele>3.4</ele>
        <time>2023-11-04T21:11:50Z</time>
      </trkpt>
      <trkpt lat="47.28451" lon="-2.48403">
        <ele>2.8</ele>
        <time>2023-11-04T21:12:41Z</time>
      </trkpt>
      <trkpt lat="47.2843" lon="-2.48521">
        <ele>2</ele>
        <time>2023-11-04T21:14:31Z</time>
      </trkpt>
      <trkpt lat="47.28434" lon="-2.48541">
        <ele>2</ele>
        <time>2023-11-04T21:14:50Z</time>
      </trkpt>
      <trkpt lat="47.28466" lon="-2.48566">
        <ele>1</ele>
        <time>2023-11-04T21:15:38Z</time>
      </trkpt>
      <trkpt lat="47.2848" lon="-2.48609">
        <ele>1.7</ele>
        <time>2023-11-04T21:16:21Z</time>
      </trkpt>
      <trkpt lat="47.28469" lon="-2.48645">
        <ele>1.9</ele>
        <time>2023-11-04T21:16:57Z</time>
      </trkpt>
      <trkpt lat="47.28471" lon="-2.48679">
        <ele>1.5</ele>
        <time>2023-11-04T21:17:28Z</time>
      </trkpt>
      <trkpt lat="47.28551" lon="-2.48795">
        <ele>2.5</ele>
        <time>2023-11-04T21:19:58Z</time>
      </trkpt>
      <trkpt lat="47.28578" lon="-2.48839">
        <ele>2.2</ele>
        <time>2023-11-04T21:20:51Z</time>
      </trkpt>
      <trkpt lat="47.28571" lon="-2.48912">
        <ele>2.4</ele>
        <time>2023-11-04T21:21:58Z</time>
      </trkpt>
      <trkpt lat="47.28507" lon="-2.48922">
        <ele>2</ele>
        <time>2023-11-04T21:23:24Z</time>
      </trkpt>
      <trkpt lat="47.2847" lon="-2.48913">
        <ele>2</ele>
        <time>2023-11-04T21:24:14Z</time>
      </trkpt>
      <trkpt lat="47.2846" lon="-2.48962">
        <ele>2.7</ele>
        <time>2023-11-04T21:25:00Z</time>
      </trkpt>
      <trkpt lat="47.28488" lon="-2.48978">
        <ele>2.7</ele>
        <time>2023-11-04T21:25:41Z</time>
      </trkpt>
      <trkpt lat="47.28535" lon="-2.4897">
        <ele>2</ele>
        <time>2023-11-04T21:26:44Z</time>
      </trkpt>
      <trkpt lat="47.28575" lon="-2.48975">
        <ele>2</ele>
        <time>2023-11-04T21:27:37Z</time>
      </trkpt>
      <trkpt lat="47.28592" lon="-2.49016">
        <ele>2</ele>
        <time>2023-11-04T21:28:21Z</time>
      </trkpt>
      <trkpt lat="47.28593" lon="-2.49088">
        <ele>1</ele>
        <time>2023-11-04T21:29:26Z</time>
      </trkpt>
      <trkpt lat="47.28606" lon="-2.49159">
        <ele>1.8</ele>
        <time>2023-11-04T21:30:33Z</time>
      </trkpt>
      <trkpt lat="47.2861" lon="-2.49225">
        <ele>1.1</ele>
        <time>2023-11-04T21:31:32Z</time>
      </trkpt>
      <trkpt lat="47.28628" lon="-2.49305">
        <ele>1.6</ele>
        <time>2023-11-04T21:32:49Z</time>
      </trkpt>
      <trkpt lat="47.28632" lon="-2.49626">
        <ele>1.5</ele>
        <time>2023-11-04T21:37:39Z</time>
      </trkpt>
      <trkpt lat="47.28608" lon="-2.49646">
        <ele>1.7</ele>
        <time>2023-11-04T21:38:16Z</time>
      </trkpt>
      <trkpt lat="47.28558" lon="-2.49659">
        <ele>1.7</ele>
        <time>2023-11-04T21:39:24Z</time>
      </trkpt>
      <trkpt lat="47.28524" lon="-2.49673">
        <ele>1.1</ele>
        <time>2023-11-04T21:40:11Z</time>
      </trkpt>
      <trkpt lat="47.28515" lon="-2.49689">
        <ele>1.5</ele>
        <time>2023-11-04T21:40:30Z</time>
      </trkpt>
      <trkpt lat="47.28517" lon="-2.49712">
        <ele>1.8</ele>
        <time>2023-11-04T21:40:51Z</time>
      </trkpt>
      <trkpt lat="47.28442" lon="-2.4973">
        <ele>1.8</ele>
        <time>2023-11-04T21:42:32Z</time>
      </trkpt>
      <trkpt lat="47.28403" lon="-2.4973">
        <ele>2.4</ele>
        <time>2023-11-04T21:43:24Z</time>
      </trkpt>
      <trkpt lat="47.28339" lon="-2.49777">
        <ele>2</ele>
        <time>2023-11-04T21:45:00Z</time>
      </trkpt>
      <trkpt lat="47.28268" lon="-2.49759">
        <ele>5</ele>
        <time>2023-11-04T21:46:36Z</time>
      </trkpt>
      <trkpt lat="47.28232" lon="-2.49759">
        <ele>6</ele>
        <time>2023-11-04T21:47:24Z</time>
      </trkpt>
      <trkpt lat="47.28176" lon="-2.49748">
        <ele>7</ele>
        <time>2023-11-04T21:48:39Z</time>
      </trkpt>
      <trkpt lat="47.28141" lon="-2.49747">
        <ele>7</ele>
        <time>2023-11-04T21:49:26Z</time>
      </trkpt>
      <trkpt lat="47.28173" lon="-2.49913">
        <ele>8</ele>
        <time>2023-11-04T21:52:02Z</time>
      </trkpt>
      <trkpt lat="47.28208" lon="-2.50141">
        <ele>6</ele>
        <time>2023-11-04T21:55:34Z</time>
      </trkpt>
      <trkpt lat="47.28226" lon="-2.50195">
        <ele>5</ele>
        <time>2023-11-04T21:56:28Z</time>
      </trkpt>
      <trkpt lat="47.28259" lon="-2.50243">
        <ele>3</ele>
        <time>2023-11-04T21:57:30Z</time>
      </trkpt>
      <trkpt lat="47.2841" lon="-2.50353">
        <ele>3</ele>
        <time>2023-11-04T22:01:15Z</time>
      </trkpt>
      <trkpt lat="47.28527" lon="-2.50423">
        <ele>6</ele>
        <time>2023-11-04T22:04:03Z</time>
      </trkpt>
      <trkpt lat="47.28558" lon="-2.50449">
        <ele>5</ele>
        <time>2023-11-04T22:04:51Z</time>
      </trkpt>
      <trkpt lat="47.28693" lon="-2.50534">
        <ele>5</ele>
        <time>2023-11-04T22:08:07Z</time>
      </trkpt>
      <trkpt lat="47.28731" lon="-2.50565">
        <ele>5</ele>
        <time>2023-11-04T22:09:05Z</time>
      </trkpt>
      <trkpt lat="47.28859" lon="-2.5063">
        <ele>4</ele>
        <time>2023-11-04T22:12:06Z</time>
      </trkpt>
      <trkpt lat="47.28889" lon="-2.50653">
        <ele>4</ele>
        <time>2023-11-04T22:12:51Z</time>
      </trkpt>
      <trkpt lat="47.28912" lon="-2.50682">
        <ele>3</ele>
        <time>2023-11-04T22:13:31Z</time>
      </trkpt>
      <trkpt lat="47.28962" lon="-2.50732">
        <ele>4</ele>
        <time>2023-11-04T22:14:52Z</time>
      </trkpt>
      <trkpt lat="47.29001" lon="-2.50751">
        <ele>4</ele>
        <time>2023-11-04T22:15:47Z</time>
      </trkpt>
      <trkpt lat="47.29021" lon="-2.50749">
        <ele>5</ele>
        <time>2023-11-04T22:16:13Z</time>
      </trkpt>
      <trkpt lat="47.29024" lon="-2.50742">
        <ele>5</ele>
        <time>2023-11-04T22:16:21Z</time>
      </trkpt>
      <trkpt lat="47.29044" lon="-2.5068">
        <ele>5</ele>
        <time>2023-11-04T22:17:23Z</time>
      </trkpt>
      <trkpt lat="47.29045" lon="-2.50635">
        <ele>4</ele>
        <time>2023-11-04T22:18:04Z</time>
      </trkpt>
      <trkpt lat="47.29055" lon="-2.50591">
        <ele>4</ele>
        <time>2023-11-04T22:18:46Z</time>
      </trkpt>
      <trkpt lat="47.2906" lon="-2.50579">
        <ele>4</ele>
        <time>2023-11-04T22:18:58Z</time>
      </trkpt>
      <trkpt lat="47.29083" lon="-2.50549">
        <ele>4</ele>
        <time>2023-11-04T22:19:39Z</time>
      </trkpt>
      <trkpt lat="47.29113" lon="-2.50469">
        <ele>4</ele>
        <time>2023-11-04T22:21:02Z</time>
      </trkpt>
      <trkpt lat="47.29138" lon="-2.50456">
        <ele>3</ele>
        <time>2023-11-04T22:21:38Z</time>
      </trkpt>
      <trkpt lat="47.29204" lon="-2.50489">
        <ele>4</ele>
        <time>2023-11-04T22:23:11Z</time>
      </trkpt>
      <trkpt lat="47.29227" lon="-2.50521">
        <ele>4</ele>
        <time>2023-11-04T22:23:53Z</time>
      </trkpt>
      <trkpt lat="47.29229" lon="-2.50542">
        <ele>5</ele>
        <time>2023-11-04T22:24:12Z</time>
      </trkpt>
      <trkpt lat="47.29228" lon="-2.50558">
        <ele>5</ele>
        <time>2023-11-04T22:24:26Z</time>
      </trkpt>
      <trkpt lat="47.29206" lon="-2.50592">
        <ele>7</ele>
        <time>2023-11-04T22:25:09Z</time>
      </trkpt>
      <trkpt lat="47.29209" lon="-2.50706">
        <ele>6</ele>
        <time>2023-11-04T22:26:52Z</time>
      </trkpt>
      <trkpt lat="47.29203" lon="-2.50768">
        <ele>5</ele>
        <time>2023-11-04T22:27:49Z</time>
      </trkpt>
      <trkpt lat="47.29215" lon="-2.50801">
        <ele>4</ele>
        <time>2023-11-04T22:28:23Z</time>
      </trkpt>
      <trkpt lat="47.29254" lon="-2.50859">
        <ele>3</ele>
        <time>2023-11-04T22:29:37Z</time>
      </trkpt>
      <trkpt lat="47.29296" lon="-2.50894">
        <ele>4</ele>
        <time>2023-11-04T22:30:41Z</time>
      </trkpt>
      <trkpt lat="47.29347" lon="-2.50926">
        <ele>3</ele>
        <time>2023-11-04T22:31:55Z</time>
      </trkpt>
      <trkpt lat="47.29356" lon="-2.50924">
        <ele>3</ele>
        <time>2023-11-04T22:32:07Z</time>
      </trkpt>
      <trkpt lat="47.29363" lon="-2.50929">
        <ele>3</ele>
        <time>2023-11-04T22:32:18Z</time>
      </trkpt>
      <trkpt lat="47.29389" lon="-2.50979">
        <ele>5</ele>
        <time>2023-11-04T22:33:15Z</time>
      </trkpt>
      <trkpt lat="47.2939" lon="-2.50998">
        <ele>7</ele>
        <time>2023-11-04T22:33:32Z</time>
      </trkpt>
      <trkpt lat="47.29403" lon="-2.51022">
        <ele>7</ele>
        <time>2023-11-04T22:34:00Z</time>
      </trkpt>
      <trkpt lat="47.29494" lon="-2.51139">
        <ele>6</ele>
        <time>2023-11-04T22:36:41Z</time>
      </trkpt>
      <trkpt lat="47.29512" lon="-2.51229">
        <ele>7</ele>
        <time>2023-11-04T22:38:06Z</time>
      </trkpt>
      <trkpt lat="47.29522" lon="-2.51241">
        <ele>6</ele>
        <time>2023-11-04T22:38:23Z</time>
      </trkpt>
      <trkpt lat="47.2954" lon="-2.51306">
        <ele>6</ele>
        <time>2023-11-04T22:39:26Z</time>
      </trkpt>
      <trkpt lat="47.29591" lon="-2.51334">
        <ele>6</ele>
        <time>2023-11-04T22:40:39Z</time>
      </trkpt>
      <trkpt lat="47.29675" lon="-2.51404">
        <ele>4</ele>
        <time>2023-11-04T22:42:48Z</time>
      </trkpt>
      <trkpt lat="47.29761" lon="-2.51457">
        <ele>4</ele>
        <time>2023-11-04T22:44:52Z</time>
      </trkpt>
      <trkpt lat="47.2979" lon="-2.5147">
        <ele>4</ele>
        <time>2023-11-04T22:45:33Z</time>
      </trkpt>
      <trkpt lat="47.2982" lon="-2.5147">
        <ele>3</ele>
        <time>2023-11-04T22:46:13Z</time>
      </trkpt>
      <trkpt lat="47.29856" lon="-2.51479">
        <ele>2</ele>
        <time>2023-11-04T22:47:01Z</time>
      </trkpt>
      <trkpt lat="47.29868" lon="-2.51489">
        <ele>2</ele>
        <time>2023-11-04T22:47:20Z</time>
      </trkpt>
      <trkpt lat="47.29882" lon="-2.51522">
        <ele>2</ele>
        <time>2023-11-04T22:47:55Z</time>
      </trkpt>
      <trkpt lat="47.29903" lon="-2.51595">
        <ele>2</ele>
        <time>2023-11-04T22:49:07Z</time>
      </trkpt>
      <trkpt lat="47.29941" lon="-2.5167">
        <ele>2</ele>
        <time>2023-11-04T22:50:32Z</time>
      </trkpt>
      <trkpt lat="47.30008" lon="-2.51786">
        <time>2023-11-04T22:52:49Z</time>
      </trkpt>
      <trkpt lat="47.30002" lon="-2.51801">
        <ele>1</ele>
        <time>2023-11-04T22:53:05Z</time>
      </trkpt>
      <trkpt lat="47.29986" lon="-2.5182">
        <ele>2</ele>
        <time>2023-11-04T22:53:33Z</time>
      </trkpt>
      <trkpt lat="47.29987" lon="-2.51873">
        <ele>2</ele>
        <time>2023-11-04T22:54:21Z</time>
      </trkpt>
      <trkpt lat="47.30005" lon="-2.51909">
        <ele>1</ele>
        <time>2023-11-04T22:55:01Z</time>
      </trkpt>
      <trkpt lat="47.30022" lon="-2.51926">
        <ele>1</ele>
        <time>2023-11-04T22:55:29Z</time>
      </trkpt>
      <trkpt lat="47.30046" lon="-2.51965">
        <ele>2</ele>
        <time>2023-11-04T22:56:16Z</time>
      </trkpt>
      <trkpt lat="47.30078" lon="-2.52029">
        <ele>3</ele>
        <time>2023-11-04T22:57:28Z</time>
      </trkpt>
      <trkpt lat="47.30078" lon="-2.52071">
        <ele>4</ele>
        <time>2023-11-04T22:58:06Z</time>
      </trkpt>
      <trkpt lat="47.30058" lon="-2.52085">
        <ele>4</ele>
        <time>2023-11-04T22:58:36Z</time>
      </trkpt>
      <trkpt lat="47.30039" lon="-2.52082">
        <ele>5</ele>
        <time>2023-11-04T22:59:01Z</time>
      </trkpt>
      <trkpt lat="47.30034" lon="-2.5209">
        <ele>5</ele>
        <time>2023-11-04T22:59:11Z</time>
      </trkpt>
      <trkpt lat="47.30045" lon="-2.52155">
        <ele>5</ele>
        <time>2023-11-04T23:00:12Z</time>
      </trkpt>
      <trkpt lat="47.30074" lon="-2.52476">
        <ele>4</ele>
        <time>2023-11-04T23:05:05Z</time>
      </trkpt>
      <trkpt lat="47.30084" lon="-2.52522">
        <ele>4</ele>
        <time>2023-11-04T23:05:48Z</time>
      </trkpt>
      <trkpt lat="47.30103" lon="-2.52682">
        <ele>4</ele>
        <time>2023-11-04T23:08:15Z</time>
      </trkpt>
      <trkpt lat="47.30093" lon="-2.52742">
        <ele>5</ele>
        <time>2023-11-04T23:09:11Z</time>
      </trkpt>
      <trkpt lat="47.3009" lon="-2.52802">
        <ele>4</ele>
        <time>2023-11-04T23:10:06Z</time>
      </trkpt>
      <trkpt lat="47.3008" lon="-2.52879">
        <ele>3</ele>
        <time>2023-11-04T23:11:17Z</time>
      </trkpt>
      <trkpt lat="47.30065" lon="-2.5294">
        <ele>2</ele>
        <time>2023-11-04T23:12:15Z</time>
      </trkpt>
      <trkpt lat="47.30044" lon="-2.52999">
        <ele>1</ele>
        <time>2023-11-04T23:13:16Z</time>
      </trkpt>
      <trkpt lat="47.30037" lon="-2.53035">
        <ele>2</ele>
        <time>2023-11-04T23:13:50Z</time>
      </trkpt>
      <trkpt lat="47.3005" lon="-2.53255">
        <ele>3</ele>
        <time>2023-11-04T23:17:09Z</time>
      </trkpt>
      <trkpt lat="47.30067" lon="-2.53308">
        <ele>3</ele>
        <time>2023-11-04T23:18:03Z</time>
      </trkpt>
      <trkpt lat="47.3008" lon="-2.53389">
        <ele>2</ele>
        <time>2023-11-04T23:19:18Z</time>
      </trkpt>
      <trkpt lat="47.30074" lon="-2.53418">
        <ele>2</ele>
        <time>2023-11-04T23:19:45Z</time>
      </trkpt>
      <trkpt lat="47.30038" lon="-2.53461">
        <ele>3</ele>
        <time>2023-11-04T23:20:47Z</time>
      </trkpt>
      <trkpt lat="47.2996" lon="-2.53537">
        <ele>3</ele>
        <time>2023-11-04T23:22:52Z</time>
      </trkpt>
      <trkpt lat="47.29932" lon="-2.53581">
        <ele>3</ele>
        <time>2023-11-04T23:23:47Z</time>
      </trkpt>
      <trkpt lat="47.29918" lon="-2.53616">
        <ele>3</ele>
        <time>2023-11-04T23:24:23Z</time>
      </trkpt>
      <trkpt lat="47.2991" lon="-2.5366">
        <ele>2</ele>
        <time>2023-11-04T23:25:05Z</time>
      </trkpt>
      <trkpt lat="47.29911" lon="-2.53692">
        <ele>2</ele>
        <time>2023-11-04T23:25:33Z</time>
      </trkpt>
      <trkpt lat="47.29928" lon="-2.53811">
        <ele>3</ele>
        <time>2023-11-04T23:27:24Z</time>
      </trkpt>
      <trkpt lat="47.29947" lon="-2.53875">
        <ele>2</ele>
        <time>2023-11-04T23:28:27Z</time>
      </trkpt>
      <trkpt lat="47.29957" lon="-2.53967">
        <ele>2</ele>
        <time>2023-11-04T23:29:51Z</time>
      </trkpt>
      <trkpt lat="47.29949" lon="-2.53993">
        <ele>2</ele>
        <time>2023-11-04T23:30:17Z</time>
      </trkpt>
      <trkpt lat="47.29901" lon="-2.54086">
        <ele>2</ele>
        <time>2023-11-04T23:32:03Z</time>
      </trkpt>
      <trkpt lat="47.29879" lon="-2.54166">
        <ele>2</ele>
        <time>2023-11-04T23:33:21Z</time>
      </trkpt>
      <trkpt lat="47.29871" lon="-2.54312">
        <ele>3</ele>
        <time>2023-11-04T23:35:33Z</time>
      </trkpt>
      <trkpt lat="47.29857" lon="-2.5434">
        <ele>3</ele>
        <time>2023-11-04T23:36:05Z</time>
      </trkpt>
      <trkpt lat="47.29834" lon="-2.54364">
        <ele>4</ele>
        <time>2023-11-04T23:36:42Z</time>
      </trkpt>
      <trkpt lat="47.29812" lon="-2.54404">
        <ele>3</ele>
        <time>2023-11-04T23:37:29Z</time>
      </trkpt>
      <trkpt lat="47.29804" lon="-2.54433">
        <ele>3</ele>
        <time>2023-11-04T23:37:57Z</time>
      </trkpt>
      <trkpt lat="47.29796" lon="-2.54446">
        <ele>3</ele>
        <time>2023-11-04T23:38:13Z</time>
      </trkpt>
      <trkpt lat="47.29749" lon="-2.54497">
        <ele>4</ele>
        <time>2023-11-04T23:39:31Z</time>
      </trkpt>
      <trkpt lat="47.29735" lon="-2.54502">
        <ele>4</ele>
        <time>2023-11-04T23:39:50Z</time>
      </trkpt>
      <trkpt lat="47.29643" lon="-2.54587">
        <ele>2</ele>
        <time>2023-11-04T23:42:15Z</time>
      </trkpt>
      <trkpt lat="47.29526" lon="-2.54621">
        <ele>4</ele>
        <time>2023-11-04T23:44:54Z</time>
      </trkpt>
      <trkpt lat="47.29493" lon="-2.54647">
        <ele>3</ele>
        <time>2023-11-04T23:45:44Z</time>
      </trkpt>
      <trkpt lat="47.29479" lon="-2.54668">
        <ele>3</ele>
        <time>2023-11-04T23:46:11Z</time>
      </trkpt>
      <trkpt lat="47.29452" lon="-2.5468">
        <ele>4</ele>
        <time>2023-11-04T23:46:49Z</time>
      </trkpt>
      <trkpt lat="47.29337" lon="-2.54684">
        <ele>6</ele>
        <time>2023-11-04T23:49:22Z</time>
      </trkpt>
      <trkpt lat="47.29328" lon="-2.54687">
        <ele>5</ele>
        <time>2023-11-04T23:49:34Z</time>
      </trkpt>
      <trkpt lat="47.29328" lon="-2.54696">
        <ele>5</ele>
        <time>2023-11-04T23:49:43Z</time>
      </trkpt>
      <trkpt lat="47.29319" lon="-2.54691">
        <ele>5</ele>
        <time>2023-11-04T23:49:55Z</time>
      </trkpt>
      <trkpt lat="47.29295" lon="-2.54695">
        <ele>4</ele>
        <time>2023-11-04T23:50:28Z</time>
      </trkpt>
      <trkpt lat="47.29274" lon="-2.54713">
        <ele>3</ele>
        <time>2023-11-04T23:51:00Z</time>
      </trkpt>
      <trkpt lat="47.29246" lon="-2.54711">
        <ele>3</ele>
        <time>2023-11-04T23:51:37Z</time>
      </trkpt>
      <trkpt lat="47.2924" lon="-2.54692">
        <ele>3</ele>
        <time>2023-11-04T23:51:56Z</time>
      </trkpt>
      <trkpt lat="47.29208" lon="-2.5463">
        <ele>5</ele>
        <time>2023-11-04T23:53:07Z</time>
      </trkpt>
      <trkpt lat="47.29169" lon="-2.54585">
        <ele>5</ele>
        <time>2023-11-04T23:54:13Z</time>
      </trkpt>
      <trkpt lat="47.29143" lon="-2.54573">
        <ele>5</ele>
        <time>2023-11-04T23:54:49Z</time>
      </trkpt>
      <trkpt lat="47.29084" lon="-2.54526">
        <ele>4</ele>
        <time>2023-11-04T23:56:19Z</time>
      </trkpt>
      <trkpt lat="47.29043" lon="-2.54555">
        <ele>3</ele>
        <time>2023-11-04T23:57:20Z</time>
      </trkpt>
      <trkpt lat="47.29017" lon="-2.54497">
        <ele>3</ele>
        <time>2023-11-04T23:58:23Z</time>
      </trkpt>
      <trkpt lat="47.29031" lon="-2.54455">
        <ele>3</ele>
        <time>2023-11-04T23:59:05Z</time>
      </trkpt>
      <trkpt lat="47.29048" lon="-2.5444">
        <ele>3</ele>
        <time>2023-11-04T23:59:31Z</time>
      </trkpt>
      <trkpt lat="47.29053" lon="-2.54422">
        <ele>3</ele>
        <time>2023-11-04T23:59:49Z</time>
      </trkpt>
      <trkpt lat="47.29061" lon="-2.54418">
        <ele>3</ele>
        <time>2023-11-05T00:00:00Z</time>
      </trkpt>
      <trkpt lat="47.29066" lon="-2.54406">
        <ele>3</ele>
        <time>2023-11-05T00:00:13Z</time>
      </trkpt>
      <trkpt lat="47.29065" lon="-2.54358">
        <ele>3</ele>
        <time>2023-11-05T00:00:56Z</time>
      </trkpt>
      <trkpt lat="47.29056" lon="-2.54311">
        <ele>3</ele>
        <time>2023-11-05T00:01:41Z</time>
      </trkpt>
      <trkpt lat="47.28979" lon="-2.54076">
        <ele>5</ele>
        <time>2023-11-05T00:05:37Z</time>
      </trkpt>
      <trkpt lat="47.28942" lon="-2.53931">
        <ele>5</ele>
        <time>2023-11-05T00:07:57Z</time>
      </trkpt>
      <trkpt lat="47.28945" lon="-2.53909">
        <ele>6</ele>
        <time>2023-11-05T00:08:17Z</time>
      </trkpt>
      <trkpt lat="47.2894" lon="-2.53904">
        <ele>6</ele>
        <time>2023-11-05T00:08:25Z</time>
      </trkpt>
      <trkpt lat="47.28917" lon="-2.53736">
        <ele>8</ele>
        <time>2023-11-05T00:11:01Z</time>
      </trkpt>
      <trkpt lat="47.28894" lon="-2.53623">
        <ele>9</ele>
        <time>2023-11-05T00:12:47Z</time>
      </trkpt>
      <trkpt lat="47.28862" lon="-2.53508">
        <ele>9</ele>
        <time>2023-11-05T00:14:40Z</time>
      </trkpt>
      <trkpt lat="47.28859" lon="-2.53408">
        <ele>10</ele>
        <time>2023-11-05T00:16:10Z</time>
      </trkpt>
      <trkpt lat="47.28827" lon="-2.53229">
        <ele>12</ele>
        <time>2023-11-05T00:18:58Z</time>
      </trkpt>
      <trkpt lat="47.28806" lon="-2.53213">
        <ele>10</ele>
        <time>2023-11-05T00:19:30Z</time>
      </trkpt>
      <trkpt lat="47.28761" lon="-2.53158">
        <ele>8</ele>
        <time>2023-11-05T00:20:48Z</time>
      </trkpt>
      <trkpt lat="47.2875" lon="-2.53116">
        <ele>9</ele>
        <time>2023-11-05T00:21:28Z</time>
      </trkpt>
      <trkpt lat="47.28743" lon="-2.53028">
        <ele>11</ele>
        <time>2023-11-05T00:22:49Z</time>
      </trkpt>
      <trkpt lat="47.2875" lon="-2.52981">
        <ele>12</ele>
        <time>2023-11-05T00:23:32Z</time>
      </trkpt>
      <trkpt lat="47.28739" lon="-2.52944">
        <ele>9</ele>
        <time>2023-11-05T00:24:09Z</time>
      </trkpt>
      <trkpt lat="47.28735" lon="-2.52869">
        <ele>9</ele>
        <time>2023-11-05T00:25:17Z</time>
      </trkpt>
      <trkpt lat="47.28716" lon="-2.52741">
        <ele>8</ele>
        <time>2023-11-05T00:27:15Z</time>
      </trkpt>
      <trkpt lat="47.2872" lon="-2.52679">
        <ele>7</ele>
        <time>2023-11-05T00:28:12Z</time>
      </trkpt>
      <trkpt lat="47.28715" lon="-2.52644">
        <ele>7</ele>
        <time>2023-11-05T00:28:44Z</time>
      </trkpt>
      <trkpt lat="47.28698" lon="-2.52592">
        <ele>6</ele>
        <time>2023-11-05T00:29:36Z</time>
      </trkpt>
      <trkpt lat="47.28699" lon="-2.52566">
        <ele>6</ele>
        <time>2023-11-05T00:30:00Z</time>
      </trkpt>
      <trkpt lat="47.28714" lon="-2.52531">
        <ele>7</ele>
        <time>2023-11-05T00:30:37Z</time>
      </trkpt>
      <trkpt lat="47.28709" lon="-2.52511">
        <ele>6</ele>
        <time>2023-11-05T00:30:57Z</time>
      </trkpt>
      <trkpt lat="47.28716" lon="-2.52486">
        <ele>7</ele>
        <time>2023-11-05T00:31:21Z</time>
      </trkpt>
      <trkpt lat="47.28728" lon="-2.52468">
        <ele>8</ele>
        <time>2023-11-05T00:31:44Z</time>
      </trkpt>
      <trkpt lat="47.28734" lon="-2.52442">
        <ele>9</ele>
        <time>2023-11-05T00:32:09Z</time>
      </trkpt>
      <trkpt lat="47.28743" lon="-2.52424">
        <ele>10</ele>
        <time>2023-11-05T00:32:29Z</time>
      </trkpt>
      <trkpt lat="47.28736" lon="-2.52378">
        <ele>9</ele>
        <time>2023-11-05T00:33:12Z</time>
      </trkpt>
      <trkpt lat="47.28721" lon="-2.52351">
        <ele>8</ele>
        <time>2023-11-05T00:33:43Z</time>
      </trkpt>
      <trkpt lat="47.28724" lon="-2.52321">
        <ele>8</ele>
        <time>2023-11-05T00:34:11Z</time>
      </trkpt>
      <trkpt lat="47.28708" lon="-2.52266">
        <ele>7</ele>
        <time>2023-11-05T00:35:05Z</time>
      </trkpt>
      <trkpt lat="47.28708" lon="-2.52231">
        <ele>8</ele>
        <time>2023-11-05T00:35:37Z</time>
      </trkpt>
      <trkpt lat="47.28703" lon="-2.52215">
        <ele>8</ele>
        <time>2023-11-05T00:35:53Z</time>
      </trkpt>
      <trkpt lat="47.28679" lon="-2.52231">
        <ele>6</ele>
        <time>2023-11-05T00:36:28Z</time>
      </trkpt>
      <trkpt lat="47.28675" lon="-2.52229">
        <ele>6</ele>
        <time>2023-11-05T00:36:33Z</time>
      </trkpt>
      <trkpt lat="47.28653" lon="-2.52205">
        <ele>5</ele>
        <time>2023-11-05T00:37:10Z</time>
      </trkpt>
      <trkpt lat="47.28629" lon="-2.52184">
        <ele>4</ele>
        <time>2023-11-05T00:37:47Z</time>
      </trkpt>
      <trkpt lat="47.28635" lon="-2.52165">
        <ele>5</ele>
        <time>2023-11-05T00:38:06Z</time>
      </trkpt>
      <trkpt lat="47.28652" lon="-2.52148">
        <ele>7</ele>
        <time>2023-11-05T00:38:34Z</time>
      </trkpt>
      <trkpt lat="47.28644" lon="-2.52123">
        <ele>7</ele>
        <time>2023-11-05T00:38:59Z</time>
      </trkpt>
      <trkpt lat="47.28655" lon="-2.52091">
        <ele>9</ele>
        <time>2023-11-05T00:39:31Z</time>
      </trkpt>
      <trkpt lat="47.28653" lon="-2.52082">
        <ele>9</ele>
        <time>2023-11-05T00:39:40Z</time>
      </trkpt>
      <trkpt lat="47.28635" lon="-2.52066">
        <ele>7</ele>
        <time>2023-11-05T00:40:08Z</time>
      </trkpt>
      <trkpt lat="47.28637" lon="-2.52037">
        <ele>7</ele>
        <time>2023-11-05T00:40:34Z</time>
      </trkpt>
      <trkpt lat="47.28619" lon="-2.52001">
        <ele>6</ele>
        <time>2023-11-05T00:41:15Z</time>
      </trkpt>
      <trkpt lat="47.28611" lon="-2.51954">
        <ele>5</ele>
        <time>2023-11-05T00:41:58Z</time>
      </trkpt>
      <trkpt lat="47.28623" lon="-2.51916">
        <ele>6</ele>
        <time>2023-11-05T00:42:36Z</time>
      </trkpt>
      <trkpt lat="47.28618" lon="-2.51877">
        <ele>8</ele>
        <time>2023-11-05T00:43:12Z</time>
      </trkpt>
      <trkpt lat="47.28591" lon="-2.51822">
        <ele>7</ele>
        <time>2023-11-05T00:44:14Z</time>
      </trkpt>
      <trkpt lat="47.28561" lon="-2.51787">
        <ele>6</ele>
        <time>2023-11-05T00:45:05Z</time>
      </trkpt>
      <trkpt lat="47.28549" lon="-2.5175">
        <ele>7</ele>
        <time>2023-11-05T00:45:42Z</time>
      </trkpt>
      <trkpt lat="47.28534" lon="-2.51677">
        <ele>6</ele>
        <time>2023-11-05T00:46:51Z</time>
      </trkpt>
      <trkpt lat="47.28532" lon="-2.51618">
        <ele>5</ele>
        <time>2023-11-05T00:47:44Z</time>
      </trkpt>
      <trkpt lat="47.28522" lon="-2.5153">
        <ele>6</ele>
        <time>2023-11-05T00:49:05Z</time>
      </trkpt>
      <trkpt lat="47.28507" lon="-2.51496">
        <ele>6</ele>
        <time>2023-11-05T00:49:42Z</time>
      </trkpt>
      <trkpt lat="47.28474" lon="-2.51458">
        <ele>6</ele>
        <time>2023-11-05T00:50:38Z</time>
      </trkpt>
      <trkpt lat="47.28445" lon="-2.51402">
        <ele>7</ele>
        <time>2023-11-05T00:51:42Z</time>
      </trkpt>
      <trkpt lat="47.28438" lon="-2.51337">
        <ele>7</ele>
        <time>2023-11-05T00:52:41Z</time>
      </trkpt>
      <trkpt lat="47.28419" lon="-2.51295">
        <ele>6</ele>
        <time>2023-11-05T00:53:27Z</time>
      </trkpt>
      <trkpt lat="47.28401" lon="-2.51266">
        <ele>6</ele>
        <time>2023-11-05T00:54:03Z</time>
      </trkpt>
      <trkpt lat="47.28351" lon="-2.51229">
        <ele>4</ele>
        <time>2023-11-05T00:55:17Z</time>
      </trkpt>
      <trkpt lat="47.28331" lon="-2.5122">
        <ele>3</ele>
        <time>2023-11-05T00:55:45Z</time>
      </trkpt>
      <trkpt lat="47.28304" lon="-2.51195">
        <ele>3</ele>
        <time>2023-11-05T00:56:28Z</time>
      </trkpt>
      <trkpt lat="47.28283" lon="-2.51153">
        <ele>4</ele>
        <time>2023-11-05T00:57:15Z</time>
      </trkpt>
      <trkpt lat="47.28265" lon="-2.51088">
        <ele>5</ele>
        <time>2023-11-05T00:58:18Z</time>
      </trkpt>
      <trkpt lat="47.28254" lon="-2.51069">
        <ele>5</ele>
        <time>2023-11-05T00:58:41Z</time>
      </trkpt>
      <trkpt lat="47.28236" lon="-2.51051">
        <ele>4</ele>
        <time>2023-11-05T00:59:10Z</time>
      </trkpt>
      <trkpt lat="47.28231" lon="-2.51026">
        <ele>4</ele>
        <time>2023-11-05T00:59:34Z</time>
      </trkpt>
      <trkpt lat="47.28238" lon="-2.50985">
        <ele>4</ele>
        <time>2023-11-05T01:00:12Z</time>
      </trkpt>
      <trkpt lat="47.28229" lon="-2.50913">
        <ele>4</ele>
        <time>2023-11-05T01:01:18Z</time>
      </trkpt>
      <trkpt lat="47.28224" lon="-2.50883">
        <ele>4</ele>
        <time>2023-11-05T01:01:46Z</time>
      </trkpt>
      <trkpt lat="47.28203" lon="-2.50809">
        <ele>3</ele>
        <time>2023-11-05T01:02:59Z</time>
      </trkpt>
      <trkpt lat="47.28203" lon="-2.50776">
        <ele>4</ele>
        <time>2023-11-05T01:03:29Z</time>
      </trkpt>
      <trkpt lat="47.28184" lon="-2.50711">
        <ele>4</ele>
        <time>2023-11-05T01:04:33Z</time>
      </trkpt>
      <trkpt lat="47.28166" lon="-2.50627">
        <ele>5</ele>
        <time>2023-11-05T01:05:52Z</time>
      </trkpt>
      <trkpt lat="47.28125" lon="-2.50574">
        <ele>5</ele>
        <time>2023-11-05T01:07:05Z</time>
      </trkpt>
      <trkpt lat="47.28084" lon="-2.50574">
        <ele>3</ele>
        <time>2023-11-05T01:08:00Z</time>
      </trkpt>
      <trkpt lat="47.2806" lon="-2.50566">
        <ele>3</ele>
        <time>2023-11-05T01:08:33Z</time>
      </trkpt>
      <trkpt lat="47.28031" lon="-2.50512">
        <ele>3</ele>
        <time>2023-11-05T01:09:35Z</time>
      </trkpt>
      <trkpt lat="47.28042" lon="-2.50457">
        <ele>3</ele>
        <time>2023-11-05T01:10:27Z</time>
      </trkpt>
      <trkpt lat="47.2804" lon="-2.50407">
        <ele>3</ele>
        <time>2023-11-05T01:11:12Z</time>
      </trkpt>
      <trkpt lat="47.28066" lon="-2.50403">
        <ele>4</ele>
        <time>2023-11-05T01:11:47Z</time>
      </trkpt>
      <trkpt lat="47.28076" lon="-2.50392">
        <ele>4</ele>
        <time>2023-11-05T01:12:04Z</time>
      </trkpt>
      <trkpt lat="47.28088" lon="-2.50375">
        <ele>4</ele>
        <time>2023-11-05T01:12:26Z</time>
      </trkpt>
      <trkpt lat="47.28109" lon="-2.50316">
        <ele>4</ele>
        <time>2023-11-05T01:13:26Z</time>
      </trkpt>
      <trkpt lat="47.28113" lon="-2.50268">
        <ele>5</ele>
        <time>2023-11-05T01:14:10Z</time>
      </trkpt>
      <trkpt lat="47.28108" lon="-2.50182">
        <ele>5</ele>
        <time>2023-11-05T01:15:28Z</time>
      </trkpt>
      <trkpt lat="47.28115" lon="-2.50175">
        <ele>6</ele>
        <time>2023-11-05T01:15:40Z</time>
      </trkpt>
      <trkpt lat="47.28096" lon="-2.50177">
        <ele>5</ele>
        <time>2023-11-05T01:16:05Z</time>
      </trkpt>
      <trkpt lat="47.28086" lon="-2.50132">
        <ele>4</ele>
        <time>2023-11-05T01:16:48Z</time>
      </trkpt>
      <trkpt lat="47.28076" lon="-2.50025">
        <ele>4</ele>
        <time>2023-11-05T01:18:26Z</time>
      </trkpt>
      <trkpt lat="47.28055" lon="-2.49924">
        <ele>5</ele>
        <time>2023-11-05T01:20:01Z</time>
      </trkpt>
      <trkpt lat="47.28037" lon="-2.49854">
        <ele>4</ele>
        <time>2023-11-05T01:21:09Z</time>
      </trkpt>
      <trkpt lat="47.28002" lon="-2.49751">
        <ele>5</ele>
        <time>2023-11-05T01:22:53Z</time>
      </trkpt>
      <trkpt lat="47.27995" lon="-2.49695">
        <ele>7</ele>
        <time>2023-11-05T01:23:45Z</time>
      </trkpt>
      <trkpt lat="47.27982" lon="-2.49656">
        <ele>7</ele>
        <time>2023-11-05T01:24:24Z</time>
      </trkpt>
      <trkpt lat="47.27949" lon="-2.49598">
        <ele>6</ele>
        <time>2023-11-05T01:25:33Z</time>
      </trkpt>
      <trkpt lat="47.2789" lon="-2.49511">
        <ele>7</ele>
        <time>2023-11-05T01:27:24Z</time>
      </trkpt>
      <trkpt lat="47.27818" lon="-2.49447">
        <ele>6</ele>
        <time>2023-11-05T01:29:16Z</time>
      </trkpt>
      <trkpt lat="47.2781" lon="-2.49437">
        <ele>7</ele>
        <time>2023-11-05T01:29:30Z</time>
      </trkpt>
      <trkpt lat="47.27814" lon="-2.4942">
        <ele>7</ele>
        <time>2023-11-05T01:29:47Z</time>
      </trkpt>
      <trkpt lat="47.2781" lon="-2.49415">
        <ele>7</ele>
        <time>2023-11-05T01:29:54Z</time>
      </trkpt>
      <trkpt lat="47.27804" lon="-2.49427">
        <ele>7</ele>
        <time>2023-11-05T01:30:07Z</time>
      </trkpt>
      <trkpt lat="47.27786" lon="-2.49425">
        <ele>6</ele>
        <time>2023-11-05T01:30:31Z</time>
      </trkpt>
      <trkpt lat="47.27769" lon="-2.49415">
        <ele>7</ele>
        <time>2023-11-05T01:30:56Z</time>
      </trkpt>
      <trkpt lat="47.27756" lon="-2.4942">
        <ele>6</ele>
        <time>2023-11-05T01:31:14Z</time>
      </trkpt>
      <trkpt lat="47.27729" lon="-2.4942">
        <ele>5</ele>
        <time>2023-11-05T01:31:50Z</time>
      </trkpt>
      <trkpt lat="47.27707" lon="-2.49411">
        <ele>5</ele>
        <time>2023-11-05T01:32:20Z</time>
      </trkpt>
      <trkpt lat="47.27642" lon="-2.49396">
        <ele>4</ele>
        <time>2023-11-05T01:33:48Z</time>
      </trkpt>
      <trkpt lat="47.27601" lon="-2.49397">
        <ele>2</ele>
        <time>2023-11-05T01:34:43Z</time>
      </trkpt>
      <trkpt lat="47.27577" lon="-2.49402">
        <ele>2</ele>
        <time>2023-11-05T01:35:15Z</time>
      </trkpt>
      <trkpt lat="47.2756" lon="-2.49411">
        <ele>1</ele>
        <time>2023-11-05T01:35:39Z</time>
      </trkpt>
      <trkpt lat="47.27527" lon="-2.49416">
        <ele>3</ele>
        <time>2023-11-05T01:36:23Z</time>
      </trkpt>
      <trkpt lat="47.27522" lon="-2.49386">
        <ele>1</ele>
        <time>2023-11-05T01:36:51Z</time>
      </trkpt>
      <trkpt lat="47.27526" lon="-2.49354">
        <ele>2</ele>
        <time>2023-11-05T01:37:21Z</time>
      </trkpt>
      <trkpt lat="47.27556" lon="-2.49244">
        <ele>4</ele>
        <time>2023-11-05T01:39:08Z</time>
      </trkpt>
      <trkpt lat="47.27555" lon="-2.49217">
        <ele>5</ele>
        <time>2023-11-05T01:39:33Z</time>
      </trkpt>
      <trkpt lat="47.27548" lon="-2.4919">
        <ele>5</ele>
        <time>2023-11-05T01:39:59Z</time>
      </trkpt>
      <trkpt lat="47.27553" lon="-2.49129">
        <ele>6</ele>
        <time>2023-11-05T01:40:54Z</time>
      </trkpt>
      <trkpt lat="47.27532" lon="-2.49008">
        <ele>5</ele>
        <time>2023-11-05T01:42:48Z</time>
      </trkpt>
      <trkpt lat="47.27528" lon="-2.48935">
        <ele>5</ele>
        <time>2023-11-05T01:43:54Z</time>
      </trkpt>
      <trkpt lat="47.2752" lon="-2.48914">
        <ele>4</ele>
        <time>2023-11-05T01:44:16Z</time>
      </trkpt>
      <trkpt lat="47.27518" lon="-2.48896">
        <ele>5</ele>
        <time>2023-11-05T01:44:32Z</time>
      </trkpt>
      <trkpt lat="47.27545" lon="-2.48775">
        <ele>7</ele>
        <time>2023-11-05T01:46:27Z</time>
      </trkpt>
      <trkpt lat="47.27538" lon="-2.48734">
        <ele>6</ele>
        <time>2023-11-05T01:47:06Z</time>
      </trkpt>
      <trkpt lat="47.27527" lon="-2.48705">
        <ele>6</ele>
        <time>2023-11-05T01:47:36Z</time>
      </trkpt>
      <trkpt lat="47.27481" lon="-2.48682">
        <ele>4</ele>
        <time>2023-11-05T01:48:41Z</time>
      </trkpt>
      <trkpt lat="47.27459" lon="-2.48598">
        <ele>5</ele>
        <time>2023-11-05T01:50:02Z</time>
      </trkpt>
      <trkpt lat="47.27456" lon="-2.48565">
        <ele>5</ele>
        <time>2023-11-05T01:50:32Z</time>
      </trkpt>
      <trkpt lat="47.27469" lon="-2.48525">
        <ele>6</ele>
        <time>2023-11-05T01:51:12Z</time>
      </trkpt>
      <trkpt lat="47.27465" lon="-2.48469">
        <ele>6</ele>
        <time>2023-11-05T01:52:03Z</time>
      </trkpt>
      <trkpt lat="47.27455" lon="-2.48416">
        <ele>6</ele>
        <time>2023-11-05T01:52:53Z</time>
      </trkpt>
      <trkpt lat="47.27435" lon="-2.48351">
        <ele>5</ele>
        <time>2023-11-05T01:53:58Z</time>
      </trkpt>
      <trkpt lat="47.27422" lon="-2.48278">
        <ele>6</ele>
        <time>2023-11-05T01:55:06Z</time>
      </trkpt>
      <trkpt lat="47.27404" lon="-2.4814">
        <ele>9</ele>
        <time>2023-11-05T01:57:13Z</time>
      </trkpt>
      <trkpt lat="47.27382" lon="-2.48112">
        <ele>9</ele>
        <time>2023-11-05T01:57:52Z</time>
      </trkpt>
      <trkpt lat="47.27362" lon="-2.48099">
        <ele>8</ele>
        <time>2023-11-05T01:58:21Z</time>
      </trkpt>
      <trkpt lat="47.27316" lon="-2.48092">
        <ele>6</ele>
        <time>2023-11-05T01:59:23Z</time>
      </trkpt>
      <trkpt lat="47.27276" lon="-2.48083">
        <ele>6</ele>
        <time>2023-11-05T02:00:17Z</time>
      </trkpt>
      <trkpt lat="47.27265" lon="-2.48017">
        <ele>5</ele>
        <time>2023-11-05T02:01:19Z</time>
      </trkpt>
      <trkpt lat="47.27266" lon="-2.47984">
        <ele>4</ele>
        <time>2023-11-05T02:01:49Z</time>
      </trkpt>
      <trkpt lat="47.27281" lon="-2.47929">
        <ele>5</ele>
        <time>2023-11-05T02:02:42Z</time>
      </trkpt>
      <trkpt lat="47.27278" lon="-2.47863">
        <ele>5</ele>
        <time>2023-11-05T02:03:42Z</time>
      </trkpt>
      <trkpt lat="47.27281" lon="-2.47848">
        <ele>6</ele>
        <time>2023-11-05T02:03:56Z</time>
      </trkpt>
      <trkpt lat="47.27247" lon="-2.47802">
        <ele>6</ele>
        <time>2023-11-05T02:04:58Z</time>
      </trkpt>
      <trkpt lat="47.27227" lon="-2.47808">
        <ele>5</ele>
        <time>2023-11-05T02:05:25Z</time>
      </trkpt>
      <trkpt lat="47.27213" lon="-2.47802">
        <ele>5</ele>
        <time>2023-11-05T02:05:45Z</time>
      </trkpt>
      <trkpt lat="47.27206" lon="-2.47786">
        <ele>5</ele>
        <time>2023-11-05T02:06:02Z</time>
      </trkpt>
      <trkpt lat="47.27199" lon="-2.47782">
        <ele>5</ele>
        <time>2023-11-05T02:06:12Z</time>
      </trkpt>
      <trkpt lat="47.27182" lon="-2.47685">
        <ele>6</ele>
        <time>2023-11-05T02:07:43Z</time>
      </trkpt>
      <trkpt lat="47.2716" lon="-2.47628">
        <ele>6</ele>
        <time>2023-11-05T02:08:42Z</time>
      </trkpt>
      <trkpt lat="47.27177" lon="-2.47589">
        <ele>8</ele>
        <time>2023-11-05T02:09:24Z</time>
      </trkpt>
      <trkpt lat="47.27175" lon="-2.47581">
        <ele>9</ele>
        <time>2023-11-05T02:09:32Z</time>
      </trkpt>
      <trkpt lat="47.27134" lon="-2.47558">
        <ele>6</ele>
        <time>2023-11-05T02:10:30Z</time>
      </trkpt>
      <trkpt lat="47.27113" lon="-2.47521">
        <ele>6</ele>
        <time>2023-11-05T02:11:14Z</time>
      </trkpt>
      <trkpt lat="47.27085" lon="-2.47399">
        <ele>8</ele>
        <time>2023-11-05T02:13:10Z</time>
      </trkpt>
      <trkpt lat="47.27065" lon="-2.47346">
        <ele>9</ele>
        <time>2023-11-05T02:14:05Z</time>
      </trkpt>
      <trkpt lat="47.27057" lon="-2.47303">
        <ele>9</ele>
        <time>2023-11-05T02:14:46Z</time>
      </trkpt>
      <trkpt lat="47.27042" lon="-2.47275">
        <ele>7</ele>
        <time>2023-11-05T02:15:18Z</time>
      </trkpt>
      <trkpt lat="47.27045" lon="-2.47163">
        <ele>10</ele>
        <time>2023-11-05T02:17:00Z</time>
      </trkpt>
      <trkpt lat="47.27041" lon="-2.47141">
        <ele>10</ele>
        <time>2023-11-05T02:17:20Z</time>
      </trkpt>
      <trkpt lat="47.27026" lon="-2.47149">
        <ele>9</ele>
        <time>2023-11-05T02:17:41Z</time>
      </trkpt>
      <trkpt lat="47.27014" lon="-2.47162">
        <ele>7</ele>
        <time>2023-11-05T02:18:01Z</time>
      </trkpt>
      <trkpt lat="47.27007" lon="-2.47164">
        <ele>7</ele>
        <time>2023-11-05T02:18:11Z</time>
      </trkpt>
      <trkpt lat="47.27" lon="-2.47161">
        <ele>6</ele>
        <time>2023-11-05T02:18:21Z</time>
      </trkpt>
      <trkpt lat="47.26984" lon="-2.4713">
        <ele>6</ele>
        <time>2023-11-05T02:18:56Z</time>
      </trkpt>
      <trkpt lat="47.26996" lon="-2.47099">
        <ele>7</ele>
        <time>2023-11-05T02:19:28Z</time>
      </trkpt>
      <trkpt lat="47.26995" lon="-2.47059">
        <ele>8</ele>
        <time>2023-11-05T02:20:04Z</time>
      </trkpt>
      <trkpt lat="47.27009" lon="-2.47036">
        <ele>9</ele>
        <time>2023-11-05T02:20:32Z</time>
      </trkpt>
      <trkpt lat="47.27007" lon="-2.47022">
        <ele>9</ele>
        <time>2023-11-05T02:20:45Z</time>
      </trkpt>
      <trkpt lat="47.27011" lon="-2.46992">
        <ele>9</ele>
        <time>2023-11-05T02:21:13Z</time>
      </trkpt>
      <trkpt lat="47.26994" lon="-2.46936">
        <ele>8</ele>
        <time>2023-11-05T02:22:09Z</time>
      </trkpt>
      <trkpt lat="47.26994" lon="-2.46903">
        <ele>8</ele>
        <time>2023-11-05T02:22:38Z</time>
      </trkpt>
      <trkpt lat="47.26975" lon="-2.4687">
        <ele>6</ele>
        <time>2023-11-05T02:23:18Z</time>
      </trkpt>
      <trkpt lat="47.26967" lon="-2.46833">
        <ele>5</ele>
        <time>2023-11-05T02:23:53Z</time>
      </trkpt>
      <trkpt lat="47.26964" lon="-2.46809">
        <ele>5</ele>
        <time>2023-11-05T02:24:15Z</time>
      </trkpt>
      <trkpt lat="47.26974" lon="-2.4679">
        <ele>5</ele>
        <time>2023-11-05T02:24:37Z</time>
      </trkpt>
      <trkpt lat="47.2697" lon="-2.46754">
        <ele>5</ele>
        <time>2023-11-05T02:25:10Z</time>
      </trkpt>
      <trkpt lat="47.27" lon="-2.467">
        <ele>5</ele>
        <time>2023-11-05T02:26:13Z</time>
      </trkpt>
      <trkpt lat="47.27017" lon="-2.46689">
        <ele>6</ele>
        <time>2023-11-05T02:26:38Z</time>
      </trkpt>
      <trkpt lat="47.2704" lon="-2.46654">
        <ele>6</ele>
        <time>2023-11-05T02:27:22Z</time>
      </trkpt>
      <trkpt lat="47.27056" lon="-2.46646">
        <ele>6</ele>
        <time>2023-11-05T02:27:44Z</time>
      </trkpt>
      <trkpt lat="47.27068" lon="-2.46596">
        <ele>5</ele>
        <time>2023-11-05T02:28:32Z</time>
      </trkpt>
      <trkpt lat="47.27103" lon="-2.46581">
        <ele>6</ele>
        <time>2023-11-05T02:29:21Z</time>
      </trkpt>
      <trkpt lat="47.27107" lon="-2.46565">
        <ele>6</ele>
        <time>2023-11-05T02:29:36Z</time>
      </trkpt>
      <trkpt lat="47.27095" lon="-2.46522">
        <ele>6</ele>
        <time>2023-11-05T02:30:19Z</time>
      </trkpt>
      <trkpt lat="47.27088" lon="-2.46512">
        <ele>5</ele>
        <time>2023-11-05T02:30:32Z</time>
      </trkpt>
      <trkpt lat="47.27063" lon="-2.46521">
        <ele>4</ele>
        <time>2023-11-05T02:31:06Z</time>
      </trkpt>
      <trkpt lat="47.27038" lon="-2.46492">
        <ele>3</ele>
        <time>2023-11-05T02:31:48Z</time>
      </trkpt>
      <trkpt lat="47.27025" lon="-2.46496">
        <ele>3</ele>
        <time>2023-11-05T02:32:06Z</time>
      </trkpt>
      <trkpt lat="47.27008" lon="-2.46483">
        <ele>3</ele>
        <time>2023-11-05T02:32:32Z</time>
      </trkpt>
      <trkpt lat="47.26997" lon="-2.46462">
        <ele>3</ele>
        <time>2023-11-05T02:32:56Z</time>
      </trkpt>
      <trkpt lat="47.26983" lon="-2.46396">
        <ele>4</ele>
        <time>2023-11-05T02:33:58Z</time>
      </trkpt>
      <trkpt lat="47.26972" lon="-2.46371">
        <ele>3</ele>
        <time>2023-11-05T02:34:25Z</time>
      </trkpt>
      <trkpt lat="47.26959" lon="-2.46298">
        <ele>3</ele>
        <time>2023-11-05T02:35:34Z</time>
      </trkpt>
      <trkpt lat="47.26976" lon="-2.4626">
        <ele>3</ele>
        <time>2023-11-05T02:36:15Z</time>
      </trkpt>
      <trkpt lat="47.26985" lon="-2.46205">
        <ele>3</ele>
        <time>2023-11-05T02:37:06Z</time>
      </trkpt>
      <trkpt lat="47.27011" lon="-2.46194">
        <ele>5</ele>
        <time>2023-11-05T02:37:42Z</time>
      </trkpt>
      <trkpt lat="47.27021" lon="-2.46137">
        <ele>5</ele>
        <time>2023-11-05T02:38:35Z</time>
      </trkpt>
      <trkpt lat="47.26988" lon="-2.45991">
        <ele>6</ele>
        <time>2023-11-05T02:40:55Z</time>
      </trkpt>
      <trkpt lat="47.26971" lon="-2.45958">
        <ele>6</ele>
        <time>2023-11-05T02:41:32Z</time>
      </trkpt>
      <trkpt lat="47.26933" lon="-2.45919">
        <ele>4</ele>
        <time>2023-11-05T02:42:34Z</time>
      </trkpt>
      <trkpt lat="47.26909" lon="-2.45901">
        <ele>4</ele>
        <time>2023-11-05T02:43:10Z</time>
      </trkpt>
      <trkpt lat="47.26893" lon="-2.45874">
        <ele>4</ele>
        <time>2023-11-05T02:43:43Z</time>
      </trkpt>
      <trkpt lat="47.26874" lon="-2.45805">
        <ele>5</ele>
        <time>2023-11-05T02:44:50Z</time>
      </trkpt>
      <trkpt lat="47.26859" lon="-2.45782">
        <ele>4</ele>
        <time>2023-11-05T02:45:19Z</time>
      </trkpt>
      <trkpt lat="47.26843" lon="-2.45732">
        <ele>3</ele>
        <time>2023-11-05T02:46:09Z</time>
      </trkpt>
      <trkpt lat="47.26847" lon="-2.45702">
        <ele>4</ele>
        <time>2023-11-05T02:46:37Z</time>
      </trkpt>
      <trkpt lat="47.26814" lon="-2.45703">
        <ele>3</ele>
        <time>2023-11-05T02:47:21Z</time>
      </trkpt>
      <trkpt lat="47.26774" lon="-2.45659">
        <ele>2</ele>
        <time>2023-11-05T02:48:27Z</time>
      </trkpt>
      <trkpt lat="47.26748" lon="-2.4564">
        <ele>2</ele>
        <time>2023-11-05T02:49:06Z</time>
      </trkpt>
      <trkpt lat="47.26741" lon="-2.45628">
        <ele>3</ele>
        <time>2023-11-05T02:49:20Z</time>
      </trkpt>
      <trkpt lat="47.26739" lon="-2.45572">
        <ele>5</ele>
        <time>2023-11-05T02:50:11Z</time>
      </trkpt>
      <trkpt lat="47.26743" lon="-2.45537">
        <ele>6</ele>
        <time>2023-11-05T02:50:43Z</time>
      </trkpt>
      <trkpt lat="47.26707" lon="-2.45478">
        <ele>5</ele>
        <time>2023-11-05T02:51:55Z</time>
      </trkpt>
      <trkpt lat="47.26725" lon="-2.45446">
        <ele>6</ele>
        <time>2023-11-05T02:52:33Z</time>
      </trkpt>
    </trkseg>
  </trk>
</gpx>